Bardonia, New York
Current Conditions -  °F | °C
As of 3:56 AM on Saturday 29 Nov 2014 (Local Time) from KHPN Reporting Station
Clear Clear  
Wind Chill: -6°   Ceiling: Unl
Heat Index: -6°   Visibility: 10mi
Dew Point: -10°   Wind: 0mph
Humidity: 72%   Direction: NA
Pressure: 30.27"   Gusts: NA
Location:  41.0984°N, 74.0095°W
Report Text: KHPN 290856Z 00000KT 10SM CLR M06/M10 A3027 RMK AO2 SLP259 T10561100 50009
Loading
Personal Weather Stations






























Interactive Weather Map New forecast layout! Learn more

10-Day Weather Forecast

Advertisements
Track Severe Weather on mobile